createdAt,value
2018-12-13T00:01:14.499Z,7.37
2018-12-13T00:03:45.126Z,6.92
2018-12-13T00:06:18.669Z,6.97
2018-12-13T00:08:48.185Z,7.15
2018-12-13T00:11:26.305Z,7.62
2018-12-13T00:14:03.324Z,6.40
2018-12-13T00:16:36.562Z,6.60
2018-12-13T00:19:14.114Z,8.63
2018-12-13T00:21:47.819Z,11.75
2018-12-13T00:24:17.378Z,5.62
2018-12-13T00:30:14.922Z,6.53
2018-12-13T00:32:49.191Z,6.78
2018-12-13T00:35:26.867Z,7.00
2018-12-13T00:41:26.591Z,7.37
2018-12-13T00:44:01.137Z,6.15
2018-12-13T00:46:38.696Z,6.55
2018-12-13T00:49:18.745Z,6.30
2018-12-13T00:51:57.649Z,5.10
2018-12-13T00:54:31.279Z,10.40
2018-12-13T00:57:00.853Z,8.68
2018-12-13T01:03:01.417Z,7.62
2018-12-13T01:05:40.673Z,6.70
2018-12-13T01:08:10.527Z,6.35
2018-12-13T01:10:39.972Z,4.62
2018-12-13T01:13:17.549Z,7.60
2018-12-13T01:15:54.102Z,8.23
2018-12-13T01:21:53.606Z,7.92
2018-12-13T01:24:28.765Z,7.87
2018-12-13T01:27:03.395Z,8.80
2018-12-13T01:36:37.459Z,7.03
2018-12-13T01:39:15.006Z,7.58
2018-12-13T01:41:53.582Z,7.50
2018-12-13T01:47:54.179Z,6.17
2018-12-13T01:53:53.718Z,6.47
2018-12-13T01:56:26.946Z,11.25
2018-12-13T01:58:56.845Z,8.40
2018-12-13T02:01:30.239Z,10.85
2018-12-13T02:04:00.591Z,12.43
2018-12-13T02:10:01.226Z,12.25
2018-12-13T02:12:30.785Z,24.32
2018-12-13T02:20:05.216Z,16.62
2018-12-13T02:22:38.834Z,17.62
2018-12-13T02:25:16.423Z,18.95
2018-12-13T02:27:49.903Z,14.23
2018-12-13T02:30:26.474Z,7.37
2018-12-13T02:32:59.989Z,9.90
2018-12-13T02:35:36.860Z,9.58
2018-12-13T02:38:15.713Z,9.00
2018-12-13T02:40:48.549Z,8.10
2018-12-13T02:43:22.692Z,15.45
2018-12-13T02:45:59.829Z,8.30
2018-12-13T02:48:33.266Z,10.25
2018-12-13T02:51:10.752Z,11.85
2018-12-13T02:53:47.375Z,11.25
2018-12-13T02:56:24.830Z,13.10
2018-12-13T02:58:59.411Z,10.30
2018-12-13T03:01:33.010Z,12.35
2018-12-13T03:04:10.573Z,10.03
2018-12-13T03:13:37.218Z,10.68
2018-12-13T03:16:10.662Z,11.63
2018-12-13T03:25:45.162Z,6.33
2018-12-13T03:28:14.940Z,10.55
2018-12-13T03:30:48.479Z,7.40
2018-12-13T03:36:44.941Z,7.55
2018-12-13T03:39:19.541Z,7.30
2018-12-13T03:41:53.074Z,6.53
2018-12-13T03:44:29.395Z,7.58
2018-12-13T03:46:59.109Z,6.30
2018-12-13T03:49:35.663Z,7.40
2018-12-13T03:52:09.128Z,5.45
2018-12-13T03:54:38.697Z,11.60
2018-12-13T03:57:16.269Z,6.05
2018-12-13T03:59:50.603Z,6.90
2018-12-13T04:02:27.356Z,6.65
2018-12-13T04:04:56.867Z,6.15
2018-12-13T04:07:31.387Z,6.40
2018-12-13T04:10:08.875Z,6.75
2018-12-13T04:12:38.410Z,6.47
2018-12-13T04:15:10.998Z,6.35
2018-12-13T04:17:44.394Z,7.42
2018-12-13T04:20:17.816Z,8.55
2018-12-13T04:22:55.560Z,6.53
2018-12-13T04:25:25.095Z,7.72
2018-12-13T04:27:58.616Z,9.25
2018-12-13T04:30:32.052Z,6.05
2018-12-13T04:36:35.605Z,5.70
2018-12-13T04:39:13.202Z,6.67
2018-12-13T04:41:50.938Z,6.12
2018-12-13T04:44:24.332Z,9.73
2018-12-13T04:47:00.986Z,9.70
2018-12-13T04:56:26.598Z,8.78
2018-12-13T04:59:03.240Z,9.35
2018-12-13T05:01:36.062Z,7.70
2018-12-13T05:04:05.576Z,7.65
2018-12-13T05:06:38.803Z,6.70
2018-12-13T05:09:10.577Z,7.97
2018-12-13T05:11:43.828Z,10.85
2018-12-13T05:14:17.819Z,8.50
2018-12-13T05:16:47.745Z,6.15
2018-12-13T05:19:25.650Z,7.75
2018-12-13T05:21:59.659Z,8.28
2018-12-13T05:24:32.706Z,8.53
2018-12-13T05:27:09.617Z,6.62
2018-12-13T05:29:46.409Z,8.85
2018-12-13T05:32:15.615Z,8.53
2018-12-13T05:34:45.251Z,8.23
2018-12-13T05:37:19.417Z,8.88
2018-12-13T05:39:49.297Z,7.22
2018-12-13T05:42:21.657Z,6.85
2018-12-13T05:44:52.903Z,9.95
2018-12-13T05:47:29.594Z,9.88
2018-12-13T05:49:59.272Z,8.35
2018-12-13T05:52:37.134Z,10.98
2018-12-13T05:58:38.610Z,9.88
2018-12-13T06:04:42.401Z,9.60
2018-12-13T06:07:19.108Z,9.30
2018-12-13T06:09:49.199Z,11.18
2018-12-13T06:12:21.855Z,9.15
2018-12-13T06:14:55.298Z,10.25
2018-12-13T06:17:28.212Z,11.30
2018-12-13T06:20:00.529Z,10.85
2018-12-13T06:22:29.519Z,13.18
2018-12-13T06:25:05.962Z,13.98
2018-12-13T06:27:39.109Z,9.85
2018-12-13T06:30:13.078Z,10.25
2018-12-13T06:32:52.724Z,8.40
2018-12-13T06:35:26.773Z,11.03
2018-12-13T07:21:01.274Z,13.30
2018-12-13T08:40:52.801Z,24.57
2018-12-13T08:57:46.690Z,19.98
2018-12-13T09:07:16.813Z,17.05
2018-12-13T09:20:43.693Z,21.80
2018-12-13T09:37:10.636Z,19.00
2018-12-13T09:57:26.596Z,20.45
2018-12-13T10:07:16.021Z,18.07
2018-12-13T10:16:36.176Z,18.62
2018-12-13T10:37:01.981Z,15.88
2018-12-13T10:50:42.764Z,17.37
2018-12-13T10:57:25.671Z,20.72
2018-12-13T11:19:26.985Z,27.02
2018-12-13T11:35:25.317Z,22.20
2018-12-13T11:54:12.162Z,24.87
2018-12-13T12:00:30.557Z,26.33
2018-12-13T12:10:25.811Z,16.00
2018-12-13T12:23:30.571Z,23.60
2018-12-13T12:34:39.707Z,23.00
2018-12-13T12:37:17.699Z,22.32
2018-12-13T12:39:49.325Z,20.40
2018-12-13T12:42:19.599Z,23.77
2018-12-13T12:44:57.541Z,23.45
2018-12-13T13:04:26.653Z,21.55
2018-12-13T13:09:49.681Z,18.30
2018-12-13T13:12:28.459Z,21.80
2018-12-13T13:18:45.886Z,19.90
2018-12-13T13:24:57.084Z,22.90
2018-12-13T13:27:34.308Z,20.82
2018-12-13T13:30:08.222Z,16.17
2018-12-13T14:47:18.785Z,15.63
2018-12-13T15:09:13.978Z,19.95
2018-12-13T15:11:44.921Z,23.77
2018-12-13T15:14:16.845Z,24.43
2018-12-13T15:16:47.773Z,18.55
2018-12-13T15:19:18.400Z,22.98
2018-12-13T15:22:01.014Z,25.60
2018-12-13T15:24:49.221Z,21.20
2018-12-13T16:51:11.762Z,18.73
2018-12-13T16:53:49.741Z,18.73
2018-12-13T16:56:19.915Z,20.35
2018-12-13T16:58:53.915Z,22.20
2018-12-13T17:01:28.282Z,18.05
2018-12-13T17:04:06.557Z,16.23
2018-12-13T17:06:45.910Z,18.90
2018-12-13T17:09:25.503Z,19.12
2018-12-13T17:12:09.711Z,20.65
2018-12-13T17:14:46.974Z,18.10
2018-12-13T17:17:22.833Z,19.87
2018-12-13T17:22:49.002Z,23.67
2018-12-13T17:25:26.786Z,19.05
2018-12-13T17:28:04.045Z,18.95
2018-12-13T17:30:39.145Z,20.12
2018-12-13T17:33:11.889Z,24.87
2018-12-13T17:35:50.771Z,17.60
2018-12-13T17:38:23.903Z,19.52
2018-12-13T17:41:02.447Z,19.73
2018-12-13T17:43:39.877Z,21.17
2018-12-13T17:46:09.828Z,21.97
2018-12-13T17:48:40.323Z,18.50
2018-12-13T17:51:10.641Z,19.73
2018-12-13T17:53:43.718Z,18.77
2018-12-13T17:56:17.455Z,16.52
2018-12-13T17:58:51.451Z,22.35
2018-12-13T18:01:26.125Z,22.10
2018-12-13T18:03:57.015Z,22.42
2018-12-13T18:06:27.227Z,19.80
2018-12-13T18:08:57.105Z,22.55
2018-12-13T18:11:35.066Z,20.65
2018-12-13T18:14:06.906Z,22.32
2018-12-13T18:16:43.461Z,23.55
2018-12-13T18:19:18.674Z,18.42
2018-12-13T18:21:55.962Z,25.55
2018-12-13T18:24:26.807Z,22.98
2018-12-13T18:26:56.770Z,21.23
2018-12-13T18:29:27.378Z,20.12
2018-12-13T18:32:00.594Z,21.15
2018-12-13T18:34:31.158Z,19.62
2018-12-13T18:37:08.447Z,17.87
2018-12-13T18:39:42.425Z,19.40
2018-12-13T18:42:16.315Z,19.48
2018-12-13T18:44:53.241Z,17.42
2018-12-13T18:47:30.354Z,18.62
2018-12-13T18:50:01.247Z,17.10
2018-12-13T18:52:34.933Z,19.27
2018-12-13T18:55:08.056Z,20.50
2018-12-13T18:57:46.023Z,18.57
2018-12-13T19:00:19.798Z,22.27
2018-12-13T19:02:57.766Z,20.25
2018-12-13T19:05:28.617Z,18.55
2018-12-13T19:07:59.835Z,21.82
2018-12-13T19:10:41.853Z,23.45
2018-12-13T19:13:09.489Z,21.80
2018-12-13T19:15:40.383Z,18.42
2018-12-13T19:18:18.205Z,21.20
2018-12-13T19:20:53.241Z,22.93
2018-12-13T19:23:30.608Z,22.95
2018-12-13T19:26:07.614Z,20.25
2018-12-13T19:28:45.249Z,24.18
2018-12-13T19:31:14.449Z,17.23
2018-12-13T19:33:48.298Z,21.02
2018-12-13T19:36:18.285Z,20.37
2018-12-13T19:38:51.126Z,19.40
2018-12-13T19:41:28.194Z,21.50
2018-12-13T19:44:05.177Z,24.07
2018-12-13T19:46:42.101Z,24.37
2018-12-13T19:49:15.984Z,21.55
2018-12-13T19:51:52.958Z,25.17
2018-12-13T19:54:26.033Z,20.65
2018-12-13T19:57:00.919Z,23.02
2018-12-13T19:59:42.013Z,22.32
2018-12-13T20:02:12.933Z,29.05
2018-12-13T20:04:46.891Z,22.13
2018-12-13T20:07:21.327Z,23.05
2018-12-13T20:09:54.727Z,26.52
2018-12-13T20:12:29.664Z,23.98
2018-12-13T20:15:00.392Z,28.23
2018-12-13T20:17:34.614Z,27.20
2018-12-13T20:20:05.529Z,27.37
2018-12-13T20:22:39.185Z,33.92
2018-12-13T20:25:09.399Z,32.48
2018-12-13T20:27:47.261Z,24.95
2018-12-13T20:30:24.381Z,22.93
2018-12-13T20:32:58.037Z,25.10
2018-12-13T20:35:31.184Z,31.07
2018-12-13T20:38:09.256Z,25.08
2018-12-13T20:40:39.997Z,32.53
2018-12-13T20:43:18.196Z,24.57
2018-12-13T20:45:55.186Z,26.65
2018-12-13T20:48:29.112Z,27.48
2018-12-13T20:50:59.927Z,29.95
2018-12-13T20:53:38.031Z,28.07
2018-12-13T20:56:16.374Z,31.23
2018-12-13T20:58:49.854Z,31.45
2018-12-13T21:01:20.606Z,27.67
2018-12-13T21:03:50.799Z,25.95
2018-12-13T21:06:23.750Z,23.40
2018-12-13T21:09:01.603Z,22.32
2018-12-13T21:11:35.417Z,20.43
2018-12-13T21:14:10.303Z,19.92
2018-12-13T21:16:59.816Z,19.32
2018-12-13T21:19:26.556Z,20.15
2018-12-13T21:21:59.640Z,20.20
2018-12-13T21:24:42.759Z,19.77
2018-12-13T21:27:22.128Z,18.27
2018-12-13T21:30:02.484Z,19.25
2018-12-13T21:32:36.705Z,15.58
2018-12-13T21:35:07.945Z,16.97
2018-12-13T21:37:45.636Z,20.40
2018-12-13T21:40:22.611Z,16.02
2018-12-13T21:42:59.638Z,20.65
2018-12-13T21:45:29.543Z,14.87
2018-12-13T21:48:00.961Z,17.32
2018-12-13T21:50:31.386Z,17.45
2018-12-13T21:53:09.890Z,20.25
2018-12-13T21:55:42.314Z,18.10
2018-12-13T22:05:50.039Z,21.82
2018-12-13T22:08:19.936Z,21.90
2018-12-13T22:10:56.822Z,20.00
2018-12-13T22:13:29.856Z,22.32
2018-12-13T22:16:06.825Z,20.30
2018-12-13T22:18:43.830Z,26.12
2018-12-13T22:21:13.680Z,23.38
2018-12-13T22:23:50.778Z,19.80
2018-12-13T22:26:28.761Z,19.30
2018-12-13T22:29:06.717Z,17.62
2018-12-13T22:31:44.483Z,22.17
2018-12-13T22:34:22.489Z,23.67
2018-12-13T22:37:00.834Z,24.00
2018-12-13T22:39:34.719Z,20.05
2018-12-13T22:42:05.350Z,23.75
2018-12-13T22:44:42.640Z,23.32
2018-12-13T22:47:12.539Z,20.45
2018-12-13T22:49:50.261Z,22.37
2018-12-13T22:52:21.517Z,26.25
2018-12-13T22:54:58.466Z,19.20
2018-12-13T22:57:31.418Z,18.30
2018-12-13T23:00:11.478Z,18.87
2018-12-13T23:02:44.958Z,24.45
2018-12-13T23:05:19.751Z,19.40
2018-12-13T23:07:56.045Z,21.27
2018-12-13T23:12:59.600Z,20.20
2018-12-13T23:15:33.451Z,20.92
2018-12-13T23:18:02.929Z,20.25
2018-12-13T23:20:32.406Z,18.17
2018-12-13T23:23:11.899Z,19.92
2018-12-13T23:25:55.945Z,19.25
2018-12-13T23:28:37.886Z,18.00
2018-12-13T23:31:11.401Z,12.90
2018-12-13T23:33:41.209Z,17.20
2018-12-13T23:36:14.695Z,17.75
2018-12-13T23:38:48.210Z,13.10
2018-12-13T23:41:18.695Z,17.42
2018-12-13T23:44:07.085Z,17.25
2018-12-13T23:46:45.603Z,16.85
2018-12-13T23:49:19.125Z,16.95
2018-12-13T23:51:55.934Z,17.87
2018-12-13T23:54:34.235Z,15.83
2018-12-13T23:57:16.038Z,13.10
2018-12-13T23:59:54.406Z,19.32
